Gwinn, MI

10:35 PM EST on February 23, 2019 (GMT -0500)
Sawyer International | | Change Station
Active Advisory: Winter Storm Warning

Elev 1220 ft 46.35 °N, 87.40 °W | Updated 16 minutes ago

Overcast
Overcast
29 °F
Feels Like 23 °F
N
6
Wind Variable Wind from East

Today
High -- | Low -- °F
--% Chance of Precip.
Yesterday
High -- | Low -- °F
Precip. -- in
Pressure 29.64 in
Visibility 2.5 miles
Clouds Overcast 400 ft
Windchill 23 °F
Dew Point 28 °F
Humidity 93%
Rainfall 0.00 in
Snow Depth Not available.
7:39 AM 6:27 PM
Waning Gibbous, 74% visible
METAR KSAW 240319Z AUTO 09005KT 2 1/2SM BR OVC004 M01/M02 A2964 RMK AO2 T10151025
Pressure 29.64 in
Visibility 2.5 miles
Clouds Overcast 400 ft
Windchill 23 °F
Dew Point 28 °F
Humidity 93%
Rainfall 0.00 in
Snow Depth Not available.
7:39 AM 6:27 PM
Waning Gibbous, 74% visible
METAR KSAW 240319Z AUTO 09005KT 2 1/2SM BR OVC004 M01/M02 A2964 RMK AO2 T10151025

Get Your Daily Forecast Email!

Thanks for signing up!

Be on the lookout for a verification email in your inbox.

You'll start receiving severe weather alerts in your inbox..

×

10-Day Weather Forecast

Almanac

Astronomy

Feb. 23, 2019 Rise Set
Actual Time
Civil Twilight
Nautical Twilight
Astronomical Twilight
Moon
Length of Visible Light
Length of Day
Tomorrow will be .
, % of the Moon is Illuminated

Today's Extremes

State Highs State Lows

Community

WunderPhotos

Category 6

Welcome to Category 6. This is the collective home for Weather Underground's featured writeups by Dr. Jeff Masters (right), Bob Henson (left), Chris Burt, and other regular contributors.

Nearby

Air Quality

  Air Quality AQ Index Pollutant
Not available.

Snow Depth

Station Depth Elevation

Earthquake Activity

City Distance Mag. Time & Date
Minimum magnitude displayed is 2.5.

Coastal Water Temperatures

Place Temperature

Stations

Nearby Weather Stations

Station Location Temp. Windchill Dew Point Humidity Wind Precip. Elev Updated Type
                   

Watches & Warnings

Winter Storm Warning
Issued: 9:30 PM EST Feb. 23, 2019 – National Weather Service

... Winter Storm Warning remains in effect until 1 am EST Monday...

* what... heavy mixed precipitation expected. Total snow
accumulations of 6 to 11 inches, with accumulations up to 18
inches in the higher terrain from Negaunee through the
Michigamme Highlands to Herman. Ice accumulations of up to one
tenth of an inch expected, but will generally be confined
southeast of Gwinn late tonight. Winds gusting as high as 50
mph on Sunday.

* Where... Baraga and Marquette counties.

* When... from 10 PM this evening to 1 am EST Monday.

* Additional details... travel will be very difficult to
impossible. Widespread blowing snow will significantly reduce
visibility. Gusty winds could bring down tree branches.

Precautionary/preparedness actions...

A Winter Storm Warning means significant amounts of snow, sleet
and ice will make travel very hazardous or impossible.